Terminal Aerodrome Forecast
Issued by NWS

Home | Current Version | Previous Version | Text Only | Print | Product List | Glossary On
Versions: 1 2 3 4 5 6 7 8 9 10 11 12 13 14 15 16 17 18 19
000
FTUS45 KFGZ 010100 AAC
TAFPGA
TAF AMD
KPGA 010139Z 0102/0124 36010G18KT P6SM FEW100 BKN250
      TEMPO 0102/0104 VRB20G30KT 3SM -TSRA BKN060CB
     FM010400 33010KT P6SM BKN150
     FM011000 VRB06KT P6SM SCT150=

USA.gov is the U.S. government's official web portal to all federal, state and local government web resources and services.